createdAt,value
2023-08-24T00:01:55.435Z,44.90
2023-08-24T00:04:23.897Z,45.00
2023-08-24T00:06:51.982Z,44.90
2023-08-24T00:09:20.731Z,45.00
2023-08-24T00:11:50.326Z,45.10
2023-08-24T00:14:18.491Z,45.10
2023-08-24T00:16:46.642Z,45.20
2023-08-24T00:19:14.771Z,45.20
2023-08-24T00:21:42.881Z,45.30
2023-08-24T00:24:10.950Z,45.20
2023-08-24T00:26:39.071Z,45.30
2023-08-24T00:29:08.519Z,45.30
2023-08-24T00:31:36.679Z,45.40
2023-08-24T00:34:05.333Z,45.90
2023-08-24T00:36:33.811Z,45.40
2023-08-24T00:39:01.930Z,45.40
2023-08-24T00:41:30.023Z,45.50
2023-08-24T00:43:58.839Z,45.50
2023-08-24T00:46:29.149Z,45.60
2023-08-24T00:48:58.840Z,45.70
2023-08-24T00:51:27.117Z,45.60
2023-08-24T00:53:55.933Z,45.60
2023-08-24T00:56:25.885Z,45.70
2023-08-24T00:58:56.156Z,46.30
2023-08-24T01:01:25.694Z,45.70
2023-08-24T01:03:55.258Z,45.70
2023-08-24T01:06:23.354Z,45.80
2023-08-24T01:08:51.719Z,45.80
2023-08-24T01:11:27.320Z,45.80
2023-08-24T01:14:02.457Z,45.90
2023-08-24T01:16:33.249Z,45.80
2023-08-24T01:19:04.190Z,45.90
2023-08-24T01:21:32.870Z,45.90
2023-08-24T01:24:11.491Z,45.90
2023-08-24T01:26:41.940Z,46.00
2023-08-24T01:29:10.846Z,45.90
2023-08-24T01:31:39.008Z,45.90
2023-08-24T01:34:07.104Z,46.00
2023-08-24T01:36:35.247Z,45.90
2023-08-24T01:39:13.232Z,45.90
2023-08-24T01:41:46.028Z,46.00
2023-08-24T01:44:16.892Z,46.00
2023-08-24T01:46:45.995Z,46.00
2023-08-24T01:49:16.558Z,46.00
2023-08-24T01:51:46.383Z,46.00
2023-08-24T01:54:14.705Z,46.00
2023-08-24T01:56:44.347Z,46.10
2023-08-24T01:59:12.465Z,46.10
2023-08-24T02:01:40.522Z,46.20
2023-08-24T02:04:08.589Z,46.10
2023-08-24T02:06:36.674Z,46.10
2023-08-24T02:09:04.829Z,46.20
2023-08-24T02:11:33.048Z,46.20
2023-08-24T02:14:02.611Z,46.30
2023-08-24T02:16:31.402Z,46.30
2023-08-24T02:18:59.519Z,46.30
2023-08-24T02:21:27.623Z,46.40
2023-08-24T02:23:55.688Z,46.50
2023-08-24T02:26:23.765Z,46.50
2023-08-24T02:28:51.833Z,46.50
2023-08-24T02:31:21.581Z,46.60
2023-08-24T02:33:50.094Z,46.70
2023-08-24T02:36:18.199Z,46.80
2023-08-24T02:38:46.287Z,46.80
2023-08-24T02:41:15.510Z,46.80
2023-08-24T02:43:44.986Z,46.80
2023-08-24T02:46:15.389Z,46.80
2023-08-24T02:48:45.203Z,46.90
2023-08-24T02:51:13.398Z,47.00
2023-08-24T02:53:41.591Z,47.00
2023-08-24T02:56:09.695Z,47.10
2023-08-24T02:58:37.767Z,47.00
2023-08-24T03:01:08.322Z,47.10
2023-08-24T03:03:37.062Z,47.10
2023-08-24T03:06:08.599Z,47.20
2023-08-24T03:08:37.255Z,47.20
2023-08-24T03:11:05.695Z,47.20
2023-08-24T03:13:33.963Z,47.30
2023-08-24T03:16:06.436Z,47.30
2023-08-24T03:18:34.620Z,47.30
2023-08-24T03:21:03.384Z,47.30
2023-08-24T03:23:32.823Z,47.40
2023-08-24T03:26:01.005Z,47.40
2023-08-24T03:28:29.083Z,47.40
2023-08-24T03:30:57.538Z,47.40
2023-08-24T03:33:25.652Z,47.50
2023-08-24T03:35:53.840Z,47.60
2023-08-24T03:38:21.932Z,47.60
2023-08-24T03:40:51.374Z,47.70
2023-08-24T03:43:19.443Z,47.70
2023-08-24T03:45:47.636Z,47.70
2023-08-24T03:48:15.903Z,47.70
2023-08-24T03:50:44.055Z,47.80
2023-08-24T03:53:12.126Z,47.90
2023-08-24T03:55:41.397Z,47.90
2023-08-24T03:58:11.036Z,47.90
2023-08-24T04:00:40.634Z,47.90
2023-08-24T04:03:08.879Z,47.90
2023-08-24T04:05:36.986Z,47.90
2023-08-24T04:08:05.661Z,47.90
2023-08-24T04:10:33.869Z,48.00
2023-08-24T04:13:01.956Z,48.00
2023-08-24T04:15:31.479Z,48.00
2023-08-24T04:17:59.590Z,48.00
2023-08-24T04:20:27.728Z,48.00
2023-08-24T04:22:57.253Z,48.00
2023-08-24T04:25:25.551Z,48.10
2023-08-24T04:27:53.786Z,48.10
2023-08-24T04:30:22.701Z,48.10
2023-08-24T04:32:52.847Z,48.20
2023-08-24T04:35:21.447Z,48.20
2023-08-24T04:37:49.760Z,48.10
2023-08-24T04:40:17.940Z,48.10
2023-08-24T04:42:46.074Z,48.20
2023-08-24T04:45:14.161Z,48.20
2023-08-24T04:47:42.291Z,48.20
2023-08-24T04:50:12.106Z,48.20
2023-08-24T04:52:40.160Z,49.00
2023-08-24T04:55:09.776Z,48.40
2023-08-24T04:57:37.914Z,48.40
2023-08-24T05:00:07.505Z,48.50
2023-08-24T05:02:35.791Z,48.50
2023-08-24T05:05:04.053Z,48.60
2023-08-24T05:07:34.717Z,48.60
2023-08-24T05:10:03.034Z,48.50
2023-08-24T05:12:31.121Z,48.50
2023-08-24T05:14:59.191Z,48.50
2023-08-24T05:17:29.205Z,48.60
2023-08-24T05:19:57.345Z,48.50
2023-08-24T05:22:25.474Z,48.50
2023-08-24T05:24:55.123Z,48.50
2023-08-24T05:27:23.285Z,48.50
2023-08-24T05:29:51.357Z,48.40
2023-08-24T05:32:19.459Z,48.40
2023-08-24T05:34:47.908Z,48.50
2023-08-24T05:37:16.165Z,48.50
2023-08-24T05:39:44.458Z,48.50
2023-08-24T05:42:13.925Z,48.40
2023-08-24T05:44:42.062Z,48.40
2023-08-24T05:47:10.133Z,48.30
2023-08-24T05:49:38.245Z,48.30
2023-08-24T05:52:06.830Z,48.20
2023-08-24T05:54:35.054Z,48.30
2023-08-24T05:57:03.139Z,48.20
2023-08-24T05:59:32.790Z,48.20
2023-08-24T06:02:00.927Z,48.00
2023-08-24T06:04:29.080Z,48.00
2023-08-24T06:06:57.235Z,47.90
2023-08-24T06:09:25.446Z,47.90
2023-08-24T06:11:53.505Z,48.00
2023-08-24T06:14:21.602Z,47.90
2023-08-24T06:16:51.287Z,48.00
2023-08-24T06:19:19.385Z,48.00
2023-08-24T06:21:47.500Z,47.90
2023-08-24T06:24:15.669Z,47.90
2023-08-24T06:26:43.793Z,47.70
2023-08-24T06:29:11.901Z,47.70
2023-08-24T06:31:40.022Z,47.50
2023-08-24T06:34:09.985Z,47.40
2023-08-24T06:36:38.063Z,47.40
2023-08-24T06:39:06.363Z,47.40
2023-08-24T06:41:36.156Z,47.20
2023-08-24T06:44:04.430Z,47.10
2023-08-24T06:46:32.559Z,47.00
2023-08-24T06:49:00.675Z,46.90
2023-08-24T06:51:30.499Z,46.80
2023-08-24T06:53:58.584Z,46.80
2023-08-24T06:56:26.703Z,46.80
2023-08-24T06:58:54.783Z,46.70
2023-08-24T07:01:22.897Z,46.60
2023-08-24T07:03:51.048Z,46.50
2023-08-24T07:06:19.152Z,46.50
2023-08-24T07:08:48.607Z,46.50
2023-08-24T07:11:16.682Z,46.30
2023-08-24T07:13:44.823Z,46.20
2023-08-24T07:16:12.962Z,46.20
2023-08-24T07:18:41.123Z,46.60
2023-08-24T07:21:09.198Z,46.00
2023-08-24T07:23:37.336Z,46.00
2023-08-24T07:26:07.193Z,45.90
2023-08-24T07:28:35.304Z,45.70
2023-08-24T07:31:09.732Z,45.50
2023-08-24T07:33:39.037Z,45.30
2023-08-24T07:36:07.949Z,45.20
2023-08-24T07:38:36.130Z,45.10
2023-08-24T07:41:04.246Z,44.90
2023-08-24T07:43:33.761Z,44.80
2023-08-24T07:46:02.145Z,44.60
2023-08-24T07:48:30.851Z,44.60
2023-08-24T07:50:58.951Z,44.50
2023-08-24T07:53:27.047Z,44.40
2023-08-24T07:55:55.744Z,44.40
2023-08-24T07:58:23.874Z,44.20
2023-08-24T08:00:53.912Z,44.10
2023-08-24T08:03:22.695Z,44.00
2023-08-24T08:05:51.174Z,43.90
2023-08-24T08:08:19.485Z,43.80
2023-08-24T08:10:48.386Z,43.80
2023-08-24T08:13:16.435Z,43.70
2023-08-24T08:15:44.570Z,43.50
2023-08-24T08:18:14.393Z,43.20
2023-08-24T08:20:42.542Z,43.00
2023-08-24T08:23:10.644Z,42.80
2023-08-24T08:25:38.915Z,42.50
2023-08-24T08:28:07.406Z,42.40
2023-08-24T08:30:35.585Z,42.20
2023-08-24T08:33:03.853Z,42.00
2023-08-24T08:35:33.376Z,41.60
2023-08-24T08:38:01.463Z,41.10
2023-08-24T08:40:32.532Z,40.80
2023-08-24T08:43:00.859Z,40.60
2023-08-24T08:45:30.225Z,40.50
2023-08-24T08:48:01.118Z,40.40
2023-08-24T08:50:31.708Z,40.20
2023-08-24T08:53:01.482Z,40.10
2023-08-24T08:55:31.154Z,39.90
2023-08-24T08:58:01.020Z,39.70
2023-08-24T09:00:30.394Z,39.60
2023-08-24T09:03:01.315Z,39.30
2023-08-24T09:05:29.600Z,39.10
2023-08-24T09:08:00.614Z,38.90
2023-08-24T09:10:30.113Z,38.70
2023-08-24T09:12:58.326Z,38.70
2023-08-24T09:15:27.791Z,38.60
2023-08-24T09:17:57.410Z,38.20
2023-08-24T09:20:29.552Z,38.00
2023-08-24T09:22:58.593Z,37.80
2023-08-24T09:25:26.792Z,37.50
2023-08-24T09:28:07.400Z,37.30
2023-08-24T09:30:38.708Z,36.80
2023-08-24T09:33:12.027Z,36.80
2023-08-24T09:35:40.198Z,36.40
2023-08-24T09:38:21.271Z,36.00
2023-08-24T09:40:53.073Z,35.40
2023-08-24T09:43:23.641Z,35.40
2023-08-24T09:45:52.882Z,35.10
2023-08-24T09:48:21.598Z,34.90
2023-08-24T09:50:51.174Z,34.60
2023-08-24T09:53:21.438Z,34.50
2023-08-24T09:55:55.831Z,34.30
2023-08-24T09:58:26.276Z,34.00
2023-08-24T10:00:54.893Z,33.90
2023-08-24T10:03:27.076Z,33.80
2023-08-24T10:06:00.327Z,33.60
2023-08-24T10:08:33.605Z,33.40
2023-08-24T10:11:01.758Z,33.20
2023-08-24T10:13:41.470Z,33.60
2023-08-24T10:16:10.994Z,32.50
2023-08-24T10:18:39.516Z,32.20
2023-08-24T10:21:08.135Z,31.90
2023-08-24T10:23:37.226Z,31.70
2023-08-24T10:26:05.711Z,31.40
2023-08-24T10:28:35.803Z,31.30
2023-08-24T10:31:04.746Z,31.00
2023-08-24T10:33:35.384Z,30.70
2023-08-24T10:36:07.199Z,30.40
2023-08-24T10:38:42.181Z,30.00
2023-08-24T10:41:11.711Z,29.90
2023-08-24T10:43:43.698Z,29.80
2023-08-24T10:46:16.813Z,29.50
2023-08-24T10:49:01.072Z,29.20
2023-08-24T10:51:30.933Z,29.00
2023-08-24T10:54:00.372Z,29.00
2023-08-24T10:56:36.587Z,28.80
2023-08-24T10:59:16.542Z,28.40
2023-08-24T11:01:46.150Z,28.20
2023-08-24T11:04:14.447Z,28.20
2023-08-24T11:06:56.439Z,28.00
2023-08-24T11:09:25.813Z,27.70
2023-08-24T11:12:01.665Z,28.20
2023-08-24T11:14:32.489Z,27.60
2023-08-24T11:17:03.882Z,27.20
2023-08-24T11:19:32.520Z,27.00
2023-08-24T11:22:01.185Z,26.90
2023-08-24T11:24:29.854Z,27.20
2023-08-24T11:27:01.365Z,27.20
2023-08-24T11:29:30.907Z,27.00
2023-08-24T11:32:00.570Z,26.70
2023-08-24T11:34:28.699Z,26.40
2023-08-24T11:36:56.811Z,26.30
2023-08-24T11:39:26.904Z,26.00
2023-08-24T11:42:02.403Z,25.90
2023-08-24T11:44:32.312Z,25.50
2023-08-24T11:47:01.246Z,25.50
2023-08-24T11:49:29.711Z,25.40
2023-08-24T11:51:59.312Z,25.20
2023-08-24T11:54:27.573Z,25.10
2023-08-24T11:56:55.712Z,24.90
2023-08-24T11:59:23.974Z,24.30
2023-08-24T12:01:53.885Z,24.50
2023-08-24T12:04:21.998Z,24.30
2023-08-24T12:06:50.171Z,24.30
2023-08-24T12:09:18.288Z,24.20
2023-08-24T12:11:46.534Z,24.00
2023-08-24T12:14:19.787Z,23.70
2023-08-24T12:16:47.915Z,23.40
2023-08-24T12:19:17.383Z,23.30
2023-08-24T12:21:46.957Z,23.40
2023-08-24T12:24:16.530Z,23.30
2023-08-24T12:26:44.735Z,23.30
2023-08-24T12:29:13.075Z,23.20
2023-08-24T12:31:45.534Z,23.20
2023-08-24T12:34:18.523Z,23.30
2023-08-24T12:36:47.643Z,23.50
2023-08-24T12:39:16.329Z,23.70
2023-08-24T12:41:44.464Z,23.90
2023-08-24T12:44:14.584Z,24.00
2023-08-24T12:46:44.157Z,24.30
2023-08-24T12:49:12.272Z,24.50
2023-08-24T12:51:42.534Z,24.60
2023-08-24T12:54:11.889Z,24.70
2023-08-24T12:56:41.705Z,24.80
2023-08-24T12:59:10.196Z,24.90
2023-08-24T13:01:38.336Z,24.90
2023-08-24T13:04:07.614Z,25.00
2023-08-24T13:06:36.693Z,25.00
2023-08-24T13:09:06.340Z,25.00
2023-08-24T13:11:34.919Z,25.10
2023-08-24T13:14:03.082Z,25.20
2023-08-24T13:16:31.226Z,25.30
2023-08-24T13:18:59.348Z,25.40
2023-08-24T13:21:28.150Z,25.40
2023-08-24T13:23:56.386Z,25.40
2023-08-24T13:26:25.851Z,25.30
2023-08-24T13:28:54.126Z,25.20
2023-08-24T13:31:22.378Z,25.40
2023-08-24T13:33:50.493Z,25.50
2023-08-24T13:36:18.614Z,25.60
2023-08-24T13:38:47.115Z,25.70
2023-08-24T13:41:15.595Z,25.80
2023-08-24T13:43:45.425Z,25.70
2023-08-24T13:46:13.657Z,25.60
2023-08-24T13:48:41.813Z,25.60
2023-08-24T13:51:10.386Z,25.60
2023-08-24T13:53:38.529Z,25.60
2023-08-24T13:56:07.970Z,25.80
2023-08-24T13:58:36.694Z,25.90
2023-08-24T14:01:06.495Z,25.90
2023-08-24T14:03:35.780Z,26.00
2023-08-24T14:06:04.129Z,26.00
2023-08-24T14:08:32.282Z,26.00
2023-08-24T14:11:00.387Z,26.00
2023-08-24T14:13:28.484Z,26.00
2023-08-24T14:15:58.310Z,26.00
2023-08-24T14:18:29.196Z,25.90
2023-08-24T14:20:57.464Z,25.90
2023-08-24T14:23:26.047Z,26.10
2023-08-24T14:25:54.341Z,26.10
2023-08-24T14:28:24.164Z,26.20
2023-08-24T14:30:52.476Z,26.20
2023-08-24T14:33:20.924Z,26.30
2023-08-24T14:35:54.738Z,26.20
2023-08-24T14:38:22.880Z,26.10
2023-08-24T14:40:50.978Z,26.10
2023-08-24T14:43:19.070Z,26.10
2023-08-24T14:45:47.448Z,26.20
2023-08-24T14:48:16.315Z,26.20
2023-08-24T14:50:44.649Z,26.30
2023-08-24T14:53:14.127Z,26.40
2023-08-24T14:55:42.411Z,26.40
2023-08-24T14:58:10.554Z,26.50
2023-08-24T15:00:38.639Z,26.50
2023-08-24T15:03:07.024Z,26.50
2023-08-24T15:05:41.618Z,26.50
2023-08-24T15:08:09.723Z,26.50
2023-08-24T15:10:39.239Z,26.50
2023-08-24T15:13:07.798Z,26.60
2023-08-24T15:15:38.738Z,26.60
2023-08-24T15:18:07.474Z,26.70
2023-08-24T15:20:35.699Z,26.80
2023-08-24T15:23:03.925Z,26.90
2023-08-24T15:25:32.113Z,26.90
2023-08-24T15:28:01.803Z,26.90
2023-08-24T15:30:29.880Z,26.90
2023-08-24T15:32:58.021Z,27.10
2023-08-24T15:35:26.869Z,27.10
2023-08-24T15:37:55.925Z,27.10
2023-08-24T15:40:24.042Z,27.20
2023-08-24T15:42:52.137Z,27.10
2023-08-24T15:45:21.620Z,27.10
2023-08-24T15:47:49.760Z,27.10
2023-08-24T15:50:17.954Z,27.20
2023-08-24T15:52:46.084Z,27.10
2023-08-24T15:55:14.267Z,27.20
2023-08-24T15:57:43.075Z,27.20
2023-08-24T16:00:12.473Z,27.30
2023-08-24T16:02:42.517Z,27.20
2023-08-24T16:05:11.888Z,27.30
2023-08-24T16:07:40.034Z,27.30
2023-08-24T16:10:08.953Z,27.30
2023-08-24T16:12:37.101Z,27.30
2023-08-24T16:15:06.252Z,27.30
2023-08-24T16:17:34.548Z,27.20
2023-08-24T16:20:08.374Z,27.20
2023-08-24T16:22:37.949Z,27.20
2023-08-24T16:25:06.344Z,27.20
2023-08-24T16:27:35.531Z,27.40
2023-08-24T16:30:04.111Z,28.10
2023-08-24T16:32:32.634Z,27.80
2023-08-24T16:35:01.027Z,28.00
2023-08-24T16:37:31.100Z,28.30
2023-08-24T16:40:00.708Z,29.20
2023-08-24T16:42:29.412Z,29.00
2023-08-24T16:44:57.500Z,29.20
2023-08-24T16:47:25.751Z,29.50
2023-08-24T16:49:53.846Z,29.70
2023-08-24T16:52:21.984Z,29.80
2023-08-24T16:54:51.514Z,29.90
2023-08-24T16:57:19.593Z,30.10
2023-08-24T16:59:47.959Z,30.30
2023-08-24T17:02:16.138Z,30.60
2023-08-24T17:04:44.247Z,30.80
2023-08-24T17:07:12.342Z,31.10
2023-08-24T17:09:40.478Z,31.20
2023-08-24T17:12:10.198Z,31.40
2023-08-24T17:14:39.293Z,32.20
2023-08-24T17:17:07.881Z,31.70
2023-08-24T17:19:35.988Z,31.90
2023-08-24T17:22:04.605Z,32.10
2023-08-24T17:24:32.731Z,32.30
2023-08-24T17:27:02.947Z,32.40
2023-08-24T17:29:32.465Z,32.50
2023-08-24T17:32:00.608Z,32.60
2023-08-24T17:34:28.795Z,32.70
2023-08-24T17:36:56.912Z,32.80
2023-08-24T17:39:25.899Z,33.00
2023-08-24T17:41:53.976Z,33.00
2023-08-24T17:44:22.755Z,33.20
2023-08-24T17:46:52.275Z,33.30
2023-08-24T17:49:20.348Z,33.40
2023-08-24T17:51:48.430Z,33.50
2023-08-24T17:54:16.571Z,33.60
2023-08-24T17:56:44.687Z,33.80
2023-08-24T17:59:12.799Z,34.00
2023-08-24T18:01:41.001Z,34.20
2023-08-24T18:04:10.502Z,34.30
2023-08-24T18:06:38.604Z,34.50
2023-08-24T18:09:08.173Z,34.70
2023-08-24T18:11:37.228Z,34.90
2023-08-24T18:14:05.519Z,35.10
2023-08-24T18:16:33.822Z,35.30
2023-08-24T18:19:01.990Z,35.50
2023-08-24T18:21:31.482Z,35.70
2023-08-24T18:23:59.616Z,35.90
2023-08-24T18:26:27.797Z,36.10
2023-08-24T18:28:55.872Z,36.30
2023-08-24T18:31:25.348Z,36.50
2023-08-24T18:33:53.653Z,36.70
2023-08-24T18:36:21.807Z,36.90
2023-08-24T18:38:51.231Z,37.10
2023-08-24T18:41:19.632Z,37.30
2023-08-24T18:43:47.766Z,37.50
2023-08-24T18:46:15.998Z,37.70
2023-08-24T18:48:44.099Z,37.80
2023-08-24T18:51:12.465Z,38.00
2023-08-24T18:53:40.992Z,38.20
2023-08-24T18:56:10.441Z,38.30
2023-08-24T18:58:38.540Z,38.60
2023-08-24T19:01:06.680Z,38.70
2023-08-24T19:03:34.898Z,39.00
2023-08-24T19:06:15.136Z,39.10
2023-08-24T19:08:51.002Z,39.20
2023-08-24T19:11:20.496Z,39.40
2023-08-24T19:13:48.727Z,39.60
2023-08-24T19:16:17.279Z,40.40
2023-08-24T19:18:45.621Z,39.90
2023-08-24T19:21:13.866Z,40.20
2023-08-24T19:23:42.297Z,40.30
2023-08-24T19:26:10.451Z,40.40
2023-08-24T19:28:39.885Z,40.70
2023-08-24T19:31:07.989Z,40.80
2023-08-24T19:33:36.068Z,41.00
2023-08-24T19:36:04.328Z,41.20
2023-08-24T19:38:32.478Z,41.40
2023-08-24T19:41:02.956Z,41.60
2023-08-24T19:43:31.156Z,41.70
2023-08-24T19:46:00.675Z,41.80
2023-08-24T19:48:28.824Z,42.00
2023-08-24T19:50:57.146Z,42.30
2023-08-24T19:53:25.247Z,42.40
2023-08-24T19:55:54.717Z,42.50
2023-08-24T19:58:23.072Z,42.70
2023-08-24T20:00:55.673Z,42.90
2023-08-24T20:03:25.763Z,43.00
2023-08-24T20:05:56.355Z,43.10
2023-08-24T20:08:24.609Z,43.30
2023-08-24T20:10:53.364Z,43.40
2023-08-24T20:13:22.113Z,43.60
2023-08-24T20:15:50.365Z,43.80
2023-08-24T20:18:18.680Z,43.90
2023-08-24T20:20:49.546Z,44.00
2023-08-24T20:23:17.628Z,44.20
2023-08-24T20:25:45.740Z,44.40
2023-08-24T20:28:14.056Z,44.50
2023-08-24T20:30:42.150Z,44.50
2023-08-24T20:33:10.277Z,44.70
2023-08-24T20:35:38.392Z,44.80
2023-08-24T20:38:08.442Z,44.90
2023-08-24T20:40:36.604Z,45.10
2023-08-24T20:43:05.200Z,45.20
2023-08-24T20:45:33.488Z,45.40
2023-08-24T20:48:01.654Z,45.50
2023-08-24T20:50:29.982Z,45.60
2023-08-24T20:52:58.081Z,45.70
2023-08-24T20:55:27.613Z,45.80
2023-08-24T20:57:55.952Z,46.00
2023-08-24T21:00:24.099Z,46.00
2023-08-24T21:02:52.264Z,46.20
2023-08-24T21:05:20.831Z,46.40
2023-08-24T21:07:49.126Z,46.50
2023-08-24T21:10:17.408Z,46.60
2023-08-24T21:12:46.858Z,46.70
2023-08-24T21:15:15.019Z,46.80
2023-08-24T21:17:43.165Z,46.80
2023-08-24T21:20:11.789Z,46.80
2023-08-24T21:22:40.149Z,46.80
2023-08-24T21:25:08.997Z,46.80
2023-08-24T21:27:37.098Z,46.90
2023-08-24T21:30:08.433Z,46.80
2023-08-24T21:32:36.755Z,46.90
2023-08-24T21:35:05.871Z,46.80
2023-08-24T21:37:34.381Z,46.90
2023-08-24T21:40:03.214Z,46.90
2023-08-24T21:42:31.554Z,47.10
2023-08-24T21:44:59.704Z,47.20
2023-08-24T21:47:29.354Z,47.30
2023-08-24T21:49:57.509Z,47.60
2023-08-24T21:52:25.568Z,47.70
2023-08-24T21:54:53.692Z,47.90
2023-08-24T21:57:23.616Z,48.10
2023-08-24T21:59:51.793Z,48.30
2023-08-24T22:02:19.891Z,48.50
2023-08-24T22:04:49.423Z,48.70
2023-08-24T22:07:17.724Z,48.80
2023-08-24T22:09:45.820Z,49.00
2023-08-24T22:12:13.952Z,49.00
2023-08-24T22:14:42.030Z,49.20
2023-08-24T22:17:12.096Z,49.30
2023-08-24T22:19:40.261Z,49.40
2023-08-24T22:22:09.884Z,49.50
2023-08-24T22:24:37.978Z,49.70
2023-08-24T22:27:06.910Z,49.90
2023-08-24T22:29:35.055Z,50.00
2023-08-24T22:32:03.524Z,50.00
2023-08-24T22:34:31.675Z,50.10
2023-08-24T22:36:59.762Z,50.30
2023-08-24T22:39:29.464Z,50.40
2023-08-24T22:41:57.614Z,50.60
2023-08-24T22:44:26.166Z,50.60
2023-08-24T22:46:54.214Z,50.70
2023-08-24T22:49:22.290Z,50.80
2023-08-24T22:51:50.379Z,50.70
2023-08-24T22:54:18.529Z,50.60
2023-08-24T22:56:48.013Z,50.50
2023-08-24T22:59:16.102Z,50.20
2023-08-24T23:01:44.328Z,50.00
2023-08-24T23:04:12.437Z,49.90
2023-08-24T23:06:49.106Z,49.70
2023-08-24T23:09:20.468Z,49.50
2023-08-24T23:11:50.562Z,49.10
2023-08-24T23:14:19.752Z,48.90
2023-08-24T23:16:48.274Z,49.20
2023-08-24T23:19:16.619Z,48.50
2023-08-24T23:21:44.806Z,48.40
2023-08-24T23:24:40.083Z,48.30
2023-08-24T23:27:02.473Z,48.20
2023-08-24T23:29:31.135Z,48.10
2023-08-24T23:31:59.255Z,48.00
2023-08-24T23:34:27.391Z,47.80
2023-08-24T23:36:55.773Z,47.70
2023-08-24T23:39:23.828Z,47.60
2023-08-24T23:41:52.527Z,47.60
2023-08-24T23:44:23.407Z,47.50
2023-08-24T23:46:51.653Z,47.40
2023-08-24T23:49:19.761Z,47.30
2023-08-24T23:51:47.860Z,47.40
2023-08-24T23:54:15.974Z,47.40
2023-08-24T23:56:44.065Z,47.40
2023-08-24T23:59:12.137Z,47.40
